Time;durP1;ratioP1;P1;durP2;ratioP2;P2;SDS_P1;SDS_P2;PMS_P1;PMS_P2;Temp;Humidity;BMP_temperature;BMP_pressure;BME280_temperature;BME280_humidity;BME280_pressure;Samples;Min_cycle;Max_cycle;Signal;HPM_P1;HPM_P2
2022/01/12 08:29:05;;;;;;;22.02;7.47;;;;;;;-2.13;60.47;101213.00;6233411;22;20083;-82
2022/01/12 09:46:12;;;;;;;21.63;9.40;;;;;;;1.09;53.94;101408.56;6187768;23;20026;-90
2022/01/12 10:53:07;;;;;;;29.88;9.75;;;;;;;1.42;49.64;101377.13;6266997;22;20027;-87
2022/01/12 11:02:01;;;;;;;25.30;9.90;;;;;;;1.84;50.13;101394.91;6265036;22;20225;-87
2022/01/12 11:05:20;;;;;;;26.38;9.85;;;;;;;2.49;48.94;101396.34;6199162;23;20468;-90
2022/01/12 11:07:52;;;;;;;32.42;11.30;;;;;;;2.47;48.72;101397.88;6186580;23;20048;-87
2022/01/12 11:10:29;;;;;;;27.13;9.65;;;;;;;1.96;48.43;101354.50;6186734;23;20019;-89
2022/01/12 11:12:59;;;;;;;24.55;9.50;;;;;;;2.02;48.75;101360.75;6216720;23;20017;-89
2022/01/12 11:15:52;;;;;;;26.42;10.32;;;;;;;2.52;47.97;101391.47;6196659;23;20072;-89
2022/01/12 11:18:25;;;;;;;26.67;10.98;;;;;;;2.27;48.07;101330.34;6208557;23;20389;-92
2022/01/12 11:21:02;;;;;;;26.25;10.57;;;;;;;2.11;48.04;101228.66;6186284;23;20013;-92
2022/01/12 11:23:37;;;;;;;24.05;10.93;;;;;;;3.21;48.10;101403.88;6185189;23;20097;-93
2022/01/12 11:26:25;;;;;;;44.80;17.25;;;;;;;3.31;47.38;101396.03;6160479;23;20104;-93
2022/01/12 11:28:56;;;;;;;25.55;9.45;;;;;;;2.52;47.24;101283.09;6185405;23;20021;-91
2022/01/12 11:31:29;;;;;;;27.27;10.82;;;;;;;3.20;46.75;101376.88;6160902;23;20017;-93
2022/01/12 11:34:00;;;;;;;31.17;11.25;;;;;;;3.38;46.63;101391.38;6186771;23;20021;-91
2022/01/12 11:36:36;;;;;;;27.70;10.98;;;;;;;2.40;46.76;101216.91;6186743;23;20092;-92
2022/01/12 11:39:09;;;;;;;29.90;11.00;;;;;;;3.52;46.69;101361.88;6186378;23;20021;-91
2022/01/12 11:41:44;;;;;;;26.40;10.95;;;;;;;3.80;46.62;101387.81;6136035;23;20104;-90
2022/01/12 11:44:16;;;;;;;29.92;11.60;;;;;;;3.75;46.08;101395.91;6185176;23;20096;-92
2022/01/12 11:46:49;;;;;;;27.77;10.77;;;;;;;3.56;46.61;101399.09;6186580;23;20024;-92
2022/01/12 11:49:28;;;;;;;27.25;10.02;;;;;;;3.20;46.23;101389.50;6185194;23;20505;-94
2022/01/12 11:52:00;;;;;;;28.27;11.40;;;;;;;3.03;46.14;101382.63;6160466;23;20056;-93
2022/01/12 11:54:36;;;;;;;27.58;10.95;;;;;;;3.02;46.90;101388.47;6185491;23;20099;-93
2022/01/12 11:57:13;;;;;;;26.23;11.80;;;;;;;3.13;46.66;101379.84;6185235;23;20467;-94
2022/01/12 11:59:55;;;;;;;27.17;11.52;;;;;;;3.20;46.70;101376.88;6186618;23;20091;-93
2022/01/12 12:02:35;;;;;;;33.97;12.10;;;;;;;3.00;46.41;101296.75;6213573;23;20021;-92
2022/01/12 12:05:11;;;;;;;31.95;11.80;;;;;;;3.42;46.54;101358.75;6214833;23;20021;-92
2022/01/12 12:07:46;;;;;;;32.53;13.00;;;;;;;3.45;46.26;101359.81;6216449;23;20017;-87
2022/01/12 12:10:18;;;;;;;32.53;11.05;;;;;;;3.35;46.14;101367.66;6216172;23;20044;-89
2022/01/12 12:12:53;;;;;;;30.15;12.18;;;;;;;3.17;46.45;101323.72;6215627;23;20017;-91
2022/01/12 12:15:26;;;;;;;33.58;11.77;;;;;;;3.45;46.43;101354.75;6216547;23;20071;-90
2022/01/12 12:17:58;;;;;;;36.13;11.35;;;;;;;3.55;46.41;101356.97;6190637;23;20388;-91
2022/01/12 12:20:28;;;;;;;29.42;11.95;;;;;;;3.67;46.66;101372.78;6214686;23;20487;-89
2022/01/12 12:22:59;;;;;;;35.80;11.75;;;;;;;3.68;46.18;101361.91;6215497;23;20013;-92
2022/01/12 12:29:09;;;;;;;28.35;10.82;;;;;;;3.30;46.03;101376.63;6293427;22;20348;-88
2022/01/12 12:31:40;;;;;;;31.48;11.43;;;;;;;3.71;45.97;101369.66;6278107;22;20015;-92
2022/01/12 12:34:25;;;;;;;27.08;10.93;;;;;;;3.11;45.31;101179.66;6279305;22;20081;-92
2022/01/12 12:37:00;;;;;;;28.67;11.25;;;;;;;4.62;44.38;101334.81;6279013;22;20023;-89
2022/01/12 12:39:32;;;;;;;30.40;11.40;;;;;;;4.83;43.08;101334.13;6279080;22;20020;-90
2022/01/12 12:42:05;;;;;;;27.50;10.68;;;;;;;4.86;42.88;101340.22;6252411;22;20016;-91
2022/01/12 12:44:38;;;;;;;31.45;10.65;;;;;;;4.32;42.82;101317.25;6277848;22;20402;-93
2022/01/12 12:47:13;;;;;;;31.38;11.30;;;;;;;3.22;42.92;101106.25;6252357;22;20050;-92
2022/01/12 12:49:51;;;;;;;28.08;10.27;;;;;;;4.15;43.09;101292.81;6252022;22;20422;-91
2022/01/12 12:52:26;;;;;;;31.77;11.38;;;;;;;3.81;43.57;101308.75;6279635;22;20016;-92
2022/01/12 12:54:59;;;;;;;24.98;10.02;;;;;;;3.00;43.94;101251.34;6254101;22;20039;-91
2022/01/12 12:57:29;;;;;;;27.33;11.07;;;;;;;3.10;44.49;101355.31;6280574;22;20015;-92
2022/01/12 13:00:12;;;;;;;26.92;10.27;;;;;;;3.19;45.67;101349.94;6253984;22;20093;-92
2022/01/12 13:02:50;;;;;;;28.15;10.82;;;;;;;3.22;45.17;101355.13;6279937;22;20011;-91
2022/01/12 13:05:25;;;;;;;26.77;10.60;;;;;;;2.87;45.71;101333.00;6254747;22;20016;-93
2022/01/12 13:07:55;;;;;;;23.40;9.73;;;;;;;2.73;46.25;101352.38;6204649;22;20085;-92
2022/01/12 13:10:32;;;;;;;30.50;10.40;;;;;;;1.26;46.72;101123.84;6226871;22;20016;-92
2022/01/12 13:13:10;;;;;;;25.92;10.95;;;;;;;2.55;47.05;101360.53;6278628;22;20016;-94
2022/01/12 13:15:59;;;;;;;26.75;10.20;;;;;;;2.23;46.94;101312.47;6277918;22;20066;-92
2022/01/12 13:18:32;;;;;;;26.85;9.30;;;;;;;2.02;47.85;101300.34;6280797;22;20046;-89
2022/01/12 13:21:11;;;;;;;31.73;10.88;;;;;;;1.61;48.29;101264.28;6258064;22;20007;-88
2022/01/12 13:23:46;;;;;;;29.58;10.25;;;;;;;2.13;48.42;101348.81;6279096;22;20023;-93
2022/01/12 13:26:26;;;;;;;25.63;10.25;;;;;;;2.06;48.44;101345.84;6252437;22;20020;-90
2022/01/12 13:29:00;;;;;;;26.70;11.10;;;;;;;1.73;49.06;101276.72;6278822;22;20091;-92
2022/01/12 13:31:48;;;;;;;24.17;9.73;;;;;;;2.02;49.71;101339.75;6278869;22;20363;-91
2022/01/12 13:38:07;;;;;;;23.95;9.95;;;;;;;1.76;50.13;101354.94;6289492;22;20107;-88
2022/01/12 13:40:50;;;;;;;25.63;10.20;;;;;;;1.41;50.01;101309.13;6268247;22;20023;-90
2022/01/12 13:53:07;;;;;;;24.33;9.27;;;;;;;0.06;51.55;101126.34;6295823;22;20102;-90
2022/01/12 15:12:51;;;;;;;24.17;9.90;;;;;;;-0.15;54.29;101229.59;6274818;22;20030;-91
2022/01/12 15:15:29;;;;;;;23.70;9.25;;;;;;;0.76;54.42;101378.75;6179877;22;20026;-90
2022/01/12 15:18:00;;;;;;;24.48;9.75;;;;;;;-0.07;54.22;101238.47;6282414;22;20015;-90
2022/01/12 18:03:38;;;;;;;15.00;6.55;;;;;;;-1.38;59.55;101454.66;6288071;22;20027;-85
2022/01/12 18:06:33;;;;;;;14.85;6.38;;;;;;;-3.07;59.91;101170.00;6250183;22;20023;-85
2022/01/12 18:19:30;;;;;;;13.02;5.57;;;;;;;-2.06;59.73;101335.25;6252264;22;20031;-86
2022/01/12 18:22:59;;;;;;;14.57;6.10;;;;;;;-2.22;60.40;101312.34;6246780;23;20047;-85
2022/01/12 18:26:06;;;;;;;14.80;6.88;;;;;;;-1.43;60.18;101461.84;6266676;23;20064;-86
2022/01/12 19:03:30;;;;;;;16.20;6.55;;;;;;;-1.64;61.42;101475.25;6156378;23;20025;-88
2022/01/12 19:24:22;;;;;;;18.33;7.07;;;;;;;-2.89;61.58;101301.31;6242261;23;20015;-86
2022/01/12 20:41:20;;;;;;;17.40;6.88;;;;;;;-1.42;61.10;101493.63;6185156;23;20073;-84
2022/01/12 20:44:43;;;;;;;19.20;7.32;;;;;;;-1.39;60.96;101481.34;6117797;23;20025;-84
2022/01/12 21:31:42;;;;;;;21.17;9.13;;;;;;;-3.17;63.51;101354.81;6090810;23;20051;-84
2022/01/12 22:05:38;;;;;;;20.58;6.78;;;;;;;-2.59;62.96;101385.25;6245549;22;20003;-84
2022/01/12 23:32:39;;;;;;;22.67;9.35;;;;;;;-2.41;64.39;101355.81;6210408;22;20029;-85
2022/01/12 23:48:53;;;;;;;27.67;10.27;;;;;;;-1.40;65.18;101558.84;6121851;23;20018;-84
